sensor_id;sensor_type;location;lat;lon;timestamp;P1;durP1;ratioP1;P2;durP2;ratioP2
19207;SDS011;9737;59.466;18.036;2023-09-19T00:01:00;13.35;;;6.53;;
19207;SDS011;9737;59.466;18.036;2023-09-19T00:03:30;14.13;;;6.50;;
19207;SDS011;9737;59.466;18.036;2023-09-19T00:06:00;14.85;;;6.32;;
19207;SDS011;9737;59.466;18.036;2023-09-19T00:08:28;13.80;;;7.03;;
19207;SDS011;9737;59.466;18.036;2023-09-19T00:10:55;11.95;;;7.47;;
19207;SDS011;9737;59.466;18.036;2023-09-19T00:13:30;15.60;;;7.50;;
19207;SDS011;9737;59.466;18.036;2023-09-19T00:15:58;17.83;;;7.57;;
19207;SDS011;9737;59.466;18.036;2023-09-19T00:18:26;15.38;;;7.88;;
19207;SDS011;9737;59.466;18.036;2023-09-19T00:20:58;13.88;;;7.13;;
19207;SDS011;9737;59.466;18.036;2023-09-19T00:23:26;19.23;;;7.53;;
19207;SDS011;9737;59.466;18.036;2023-09-19T00:25:54;22.83;;;7.68;;
19207;SDS011;9737;59.466;18.036;2023-09-19T00:28:26;15.73;;;7.45;;
19207;SDS011;9737;59.466;18.036;2023-09-19T00:30:56;15.02;;;7.22;;
19207;SDS011;9737;59.466;18.036;2023-09-19T00:33:28;15.77;;;7.95;;
19207;SDS011;9737;59.466;18.036;2023-09-19T00:35:58;14.25;;;7.75;;
19207;SDS011;9737;59.466;18.036;2023-09-19T00:38:26;16.13;;;8.00;;
19207;SDS011;9737;59.466;18.036;2023-09-19T00:40:54;17.90;;;8.40;;
19207;SDS011;9737;59.466;18.036;2023-09-19T00:43:26;24.75;;;8.50;;
19207;SDS011;9737;59.466;18.036;2023-09-19T00:45:55;20.90;;;8.25;;
19207;SDS011;9737;59.466;18.036;2023-09-19T00:48:24;26.80;;;9.30;;
19207;SDS011;9737;59.466;18.036;2023-09-19T00:50:54;23.00;;;9.55;;
19207;SDS011;9737;59.466;18.036;2023-09-19T00:53:26;15.90;;;8.35;;
19207;SDS011;9737;59.466;18.036;2023-09-19T00:55:54;23.75;;;9.65;;
19207;SDS011;9737;59.466;18.036;2023-09-19T00:58:23;21.35;;;9.80;;
19207;SDS011;9737;59.466;18.036;2023-09-19T01:00:51;22.88;;;9.43;;
19207;SDS011;9737;59.466;18.036;2023-09-19T01:03:19;24.02;;;9.38;;
19207;SDS011;9737;59.466;18.036;2023-09-19T01:05:48;28.63;;;10.15;;
19207;SDS011;9737;59.466;18.036;2023-09-19T01:08:16;21.98;;;9.25;;
19207;SDS011;9737;59.466;18.036;2023-09-19T01:10:49;16.70;;;10.13;;
19207;SDS011;9737;59.466;18.036;2023-09-19T01:13:21;20.38;;;9.48;;
19207;SDS011;9737;59.466;18.036;2023-09-19T01:15:59;19.73;;;9.60;;
19207;SDS011;9737;59.466;18.036;2023-09-19T01:18:35;21.35;;;10.05;;
19207;SDS011;9737;59.466;18.036;2023-09-19T01:21:12;22.67;;;10.15;;
19207;SDS011;9737;59.466;18.036;2023-09-19T01:23:57;19.92;;;9.82;;
19207;SDS011;9737;59.466;18.036;2023-09-19T01:26:49;20.48;;;10.18;;
19207;SDS011;9737;59.466;18.036;2023-09-19T01:29:33;26.38;;;10.05;;
19207;SDS011;9737;59.466;18.036;2023-09-19T01:32:08;19.15;;;9.63;;
19207;SDS011;9737;59.466;18.036;2023-09-19T01:34:46;21.70;;;9.68;;
19207;SDS011;9737;59.466;18.036;2023-09-19T01:37:15;21.50;;;10.38;;
19207;SDS011;9737;59.466;18.036;2023-09-19T01:39:46;22.48;;;9.93;;
19207;SDS011;9737;59.466;18.036;2023-09-19T01:42:19;24.30;;;10.43;;
19207;SDS011;9737;59.466;18.036;2023-09-19T01:45:03;24.88;;;10.13;;
19207;SDS011;9737;59.466;18.036;2023-09-19T01:47:41;25.67;;;10.90;;
19207;SDS011;9737;59.466;18.036;2023-09-19T01:50:16;21.70;;;10.57;;
19207;SDS011;9737;59.466;18.036;2023-09-19T01:52:51;20.98;;;10.95;;
19207;SDS011;9737;59.466;18.036;2023-09-19T01:55:24;25.00;;;10.65;;
19207;SDS011;9737;59.466;18.036;2023-09-19T01:57:58;21.80;;;10.70;;
19207;SDS011;9737;59.466;18.036;2023-09-19T02:00:32;27.75;;;10.50;;
19207;SDS011;9737;59.466;18.036;2023-09-19T02:03:05;21.60;;;10.80;;
19207;SDS011;9737;59.466;18.036;2023-09-19T02:05:34;19.88;;;10.60;;
19207;SDS011;9737;59.466;18.036;2023-09-19T02:08:02;25.05;;;10.93;;
19207;SDS011;9737;59.466;18.036;2023-09-19T02:10:30;24.35;;;11.25;;
19207;SDS011;9737;59.466;18.036;2023-09-19T02:12:58;26.13;;;11.57;;
19207;SDS011;9737;59.466;18.036;2023-09-19T02:15:26;24.42;;;11.45;;
19207;SDS011;9737;59.466;18.036;2023-09-19T02:17:54;23.30;;;11.65;;
19207;SDS011;9737;59.466;18.036;2023-09-19T02:20:24;28.02;;;11.38;;
19207;SDS011;9737;59.466;18.036;2023-09-19T02:22:52;29.23;;;11.38;;
19207;SDS011;9737;59.466;18.036;2023-09-19T02:25:20;25.50;;;10.77;;
19207;SDS011;9737;59.466;18.036;2023-09-19T02:27:48;26.90;;;11.45;;
19207;SDS011;9737;59.466;18.036;2023-09-19T02:30:16;22.80;;;11.77;;
19207;SDS011;9737;59.466;18.036;2023-09-19T02:32:46;25.90;;;12.50;;
19207;SDS011;9737;59.466;18.036;2023-09-19T02:35:16;24.17;;;11.95;;
19207;SDS011;9737;59.466;18.036;2023-09-19T02:37:47;26.40;;;12.82;;
19207;SDS011;9737;59.466;18.036;2023-09-19T02:40:15;27.38;;;12.98;;
19207;SDS011;9737;59.466;18.036;2023-09-19T02:42:46;25.02;;;13.00;;
19207;SDS011;9737;59.466;18.036;2023-09-19T02:45:16;27.95;;;13.15;;
19207;SDS011;9737;59.466;18.036;2023-09-19T02:47:47;29.75;;;12.95;;
19207;SDS011;9737;59.466;18.036;2023-09-19T02:50:15;27.50;;;13.68;;
19207;SDS011;9737;59.466;18.036;2023-09-19T02:52:44;32.67;;;13.88;;
19207;SDS011;9737;59.466;18.036;2023-09-19T02:55:15;29.10;;;13.23;;
19207;SDS011;9737;59.466;18.036;2023-09-19T02:57:46;30.55;;;14.18;;
19207;SDS011;9737;59.466;18.036;2023-09-19T03:00:14;29.42;;;14.05;;
19207;SDS011;9737;59.466;18.036;2023-09-19T03:02:43;24.42;;;13.23;;
19207;SDS011;9737;59.466;18.036;2023-09-19T03:05:12;29.38;;;14.38;;
19207;SDS011;9737;59.466;18.036;2023-09-19T03:07:40;30.63;;;14.70;;
19207;SDS011;9737;59.466;18.036;2023-09-19T03:10:09;26.88;;;14.55;;
19207;SDS011;9737;59.466;18.036;2023-09-19T03:12:38;32.00;;;15.23;;
19207;SDS011;9737;59.466;18.036;2023-09-19T03:15:07;27.55;;;15.35;;
19207;SDS011;9737;59.466;18.036;2023-09-19T03:17:35;35.33;;;15.15;;
19207;SDS011;9737;59.466;18.036;2023-09-19T03:20:04;36.30;;;15.10;;
19207;SDS011;9737;59.466;18.036;2023-09-19T03:22:36;26.38;;;14.98;;
19207;SDS011;9737;59.466;18.036;2023-09-19T03:25:04;32.47;;;15.80;;
19207;SDS011;9737;59.466;18.036;2023-09-19T03:27:34;28.95;;;15.82;;
19207;SDS011;9737;59.466;18.036;2023-09-19T03:30:04;39.67;;;15.70;;
19207;SDS011;9737;59.466;18.036;2023-09-19T03:32:35;27.38;;;15.02;;
19207;SDS011;9737;59.466;18.036;2023-09-19T03:35:03;31.60;;;15.57;;
19207;SDS011;9737;59.466;18.036;2023-09-19T03:37:32;35.60;;;16.73;;
19207;SDS011;9737;59.466;18.036;2023-09-19T03:40:00;36.72;;;16.98;;
19207;SDS011;9737;59.466;18.036;2023-09-19T03:42:32;31.90;;;16.38;;
19207;SDS011;9737;59.466;18.036;2023-09-19T03:45:04;38.70;;;17.30;;
19207;SDS011;9737;59.466;18.036;2023-09-19T03:47:33;31.25;;;16.98;;
19207;SDS011;9737;59.466;18.036;2023-09-19T03:50:01;33.47;;;17.05;;
19207;SDS011;9737;59.466;18.036;2023-09-19T03:52:29;34.83;;;16.63;;
19207;SDS011;9737;59.466;18.036;2023-09-19T03:54:57;32.10;;;17.00;;
19207;SDS011;9737;59.466;18.036;2023-09-19T03:57:25;37.20;;;17.80;;
19207;SDS011;9737;59.466;18.036;2023-09-19T03:59:52;31.55;;;17.50;;
19207;SDS011;9737;59.466;18.036;2023-09-19T04:02:22;41.08;;;18.52;;
19207;SDS011;9737;59.466;18.036;2023-09-19T04:04:51;41.05;;;20.33;;
19207;SDS011;9737;59.466;18.036;2023-09-19T04:07:19;37.05;;;18.48;;
19207;SDS011;9737;59.466;18.036;2023-09-19T04:09:49;36.78;;;19.15;;
19207;SDS011;9737;59.466;18.036;2023-09-19T04:12:19;34.78;;;18.90;;
19207;SDS011;9737;59.466;18.036;2023-09-19T04:14:46;39.42;;;18.92;;
19207;SDS011;9737;59.466;18.036;2023-09-19T04:17:15;34.88;;;18.05;;
19207;SDS011;9737;59.466;18.036;2023-09-19T04:19:44;43.15;;;19.40;;
19207;SDS011;9737;59.466;18.036;2023-09-19T04:22:12;37.63;;;19.35;;
19207;SDS011;9737;59.466;18.036;2023-09-19T04:24:43;40.70;;;19.20;;
19207;SDS011;9737;59.466;18.036;2023-09-19T04:27:11;42.38;;;19.35;;
19207;SDS011;9737;59.466;18.036;2023-09-19T04:29:41;40.42;;;19.35;;
19207;SDS011;9737;59.466;18.036;2023-09-19T04:32:09;39.17;;;20.27;;
19207;SDS011;9737;59.466;18.036;2023-09-19T04:34:37;35.85;;;18.73;;
19207;SDS011;9737;59.466;18.036;2023-09-19T04:37:06;35.30;;;19.48;;
19207;SDS011;9737;59.466;18.036;2023-09-19T04:42:23;37.00;;;19.40;;
19207;SDS011;9737;59.466;18.036;2023-09-19T04:46:04;35.70;;;18.58;;
19207;SDS011;9737;59.466;18.036;2023-09-19T04:49:45;44.85;;;20.10;;
19207;SDS011;9737;59.466;18.036;2023-09-19T04:53:29;37.60;;;19.60;;
19207;SDS011;9737;59.466;18.036;2023-09-19T04:57:11;38.13;;;19.25;;
19207;SDS011;9737;59.466;18.036;2023-09-19T05:00:53;40.15;;;20.73;;
19207;SDS011;9737;59.466;18.036;2023-09-19T05:04:35;36.75;;;19.40;;
19207;SDS011;9737;59.466;18.036;2023-09-19T05:08:17;38.95;;;20.10;;
19207;SDS011;9737;59.466;18.036;2023-09-19T05:12:00;37.78;;;20.25;;
19207;SDS011;9737;59.466;18.036;2023-09-19T05:15:42;41.53;;;20.90;;
19207;SDS011;9737;59.466;18.036;2023-09-19T05:19:24;37.80;;;20.80;;
19207;SDS011;9737;59.466;18.036;2023-09-19T05:23:06;43.10;;;20.20;;
19207;SDS011;9737;59.466;18.036;2023-09-19T05:26:49;33.25;;;20.15;;
19207;SDS011;9737;59.466;18.036;2023-09-19T05:30:32;38.45;;;20.63;;
19207;SDS011;9737;59.466;18.036;2023-09-19T05:34:14;39.28;;;20.45;;
19207;SDS011;9737;59.466;18.036;2023-09-19T05:37:56;36.25;;;20.30;;
19207;SDS011;9737;59.466;18.036;2023-09-19T05:41:39;38.00;;;20.10;;
19207;SDS011;9737;59.466;18.036;2023-09-19T05:45:22;31.92;;;18.27;;
19207;SDS011;9737;59.466;18.036;2023-09-19T05:49:06;36.05;;;19.75;;
19207;SDS011;9737;59.466;18.036;2023-09-19T05:52:51;34.53;;;18.23;;
19207;SDS011;9737;59.466;18.036;2023-09-19T05:56:33;33.40;;;18.23;;
19207;SDS011;9737;59.466;18.036;2023-09-19T06:00:14;35.65;;;18.40;;
19207;SDS011;9737;59.466;18.036;2023-09-19T06:03:55;35.42;;;18.38;;
19207;SDS011;9737;59.466;18.036;2023-09-19T06:07:39;36.40;;;18.52;;
19207;SDS011;9737;59.466;18.036;2023-09-19T06:11:20;33.42;;;18.83;;
19207;SDS011;9737;59.466;18.036;2023-09-19T06:15:03;35.05;;;18.10;;
19207;SDS011;9737;59.466;18.036;2023-09-19T06:18:46;35.15;;;18.45;;
19207;SDS011;9737;59.466;18.036;2023-09-19T06:22:28;32.25;;;18.23;;
19207;SDS011;9737;59.466;18.036;2023-09-19T06:26:11;37.80;;;18.77;;
19207;SDS011;9737;59.466;18.036;2023-09-19T06:29:53;35.63;;;19.23;;
19207;SDS011;9737;59.466;18.036;2023-09-19T07:14:34;42.58;;;20.70;;
19207;SDS011;9737;59.466;18.036;2023-09-19T07:17:02;42.15;;;19.80;;
19207;SDS011;9737;59.466;18.036;2023-09-19T07:19:31;34.40;;;20.48;;
19207;SDS011;9737;59.466;18.036;2023-09-19T07:21:58;40.33;;;22.13;;
19207;SDS011;9737;59.466;18.036;2023-09-19T07:24:28;37.65;;;20.45;;
19207;SDS011;9737;59.466;18.036;2023-09-19T07:26:57;39.92;;;20.90;;
19207;SDS011;9737;59.466;18.036;2023-09-19T07:29:25;31.65;;;20.77;;
19207;SDS011;9737;59.466;18.036;2023-09-19T07:31:55;37.42;;;20.35;;
19207;SDS011;9737;59.466;18.036;2023-09-19T07:34:22;34.15;;;20.00;;
19207;SDS011;9737;59.466;18.036;2023-09-19T07:36:50;34.13;;;19.85;;
19207;SDS011;9737;59.466;18.036;2023-09-19T07:39:18;33.75;;;18.60;;
19207;SDS011;9737;59.466;18.036;2023-09-19T07:41:49;28.80;;;17.27;;
19207;SDS011;9737;59.466;18.036;2023-09-19T07:44:17;25.85;;;15.68;;
19207;SDS011;9737;59.466;18.036;2023-09-19T07:46:45;23.65;;;15.15;;
19207;SDS011;9737;59.466;18.036;2023-09-19T07:49:16;20.27;;;14.27;;
19207;SDS011;9737;59.466;18.036;2023-09-19T07:51:45;22.23;;;14.90;;
19207;SDS011;9737;59.466;18.036;2023-09-19T07:54:13;22.13;;;15.32;;
19207;SDS011;9737;59.466;18.036;2023-09-19T07:56:42;24.73;;;14.40;;
19207;SDS011;9737;59.466;18.036;2023-09-19T07:59:12;23.60;;;15.10;;
19207;SDS011;9737;59.466;18.036;2023-09-19T08:01:40;22.88;;;15.57;;
19207;SDS011;9737;59.466;18.036;2023-09-19T08:04:11;29.20;;;15.82;;
19207;SDS011;9737;59.466;18.036;2023-09-19T08:06:41;23.52;;;15.95;;
19207;SDS011;9737;59.466;18.036;2023-09-19T08:09:10;27.95;;;15.77;;
19207;SDS011;9737;59.466;18.036;2023-09-19T08:11:46;23.23;;;15.20;;
19207;SDS011;9737;59.466;18.036;2023-09-19T08:14:14;24.05;;;14.70;;
19207;SDS011;9737;59.466;18.036;2023-09-19T08:16:41;29.42;;;14.20;;
19207;SDS011;9737;59.466;18.036;2023-09-19T08:19:10;23.40;;;14.68;;
19207;SDS011;9737;59.466;18.036;2023-09-19T08:21:38;28.58;;;14.90;;
19207;SDS011;9737;59.466;18.036;2023-09-19T08:24:14;22.15;;;14.90;;
19207;SDS011;9737;59.466;18.036;2023-09-19T08:26:43;26.13;;;14.77;;
19207;SDS011;9737;59.466;18.036;2023-09-19T08:29:11;29.85;;;14.70;;
19207;SDS011;9737;59.466;18.036;2023-09-19T08:31:39;23.35;;;15.20;;
19207;SDS011;9737;59.466;18.036;2023-09-19T08:34:07;26.27;;;16.02;;
19207;SDS011;9737;59.466;18.036;2023-09-19T08:36:35;25.25;;;14.63;;
19207;SDS011;9737;59.466;18.036;2023-09-19T08:39:04;26.23;;;15.50;;
19207;SDS011;9737;59.466;18.036;2023-09-19T08:41:33;31.15;;;15.65;;
19207;SDS011;9737;59.466;18.036;2023-09-19T08:44:02;26.38;;;15.85;;
19207;SDS011;9737;59.466;18.036;2023-09-19T08:46:34;31.92;;;15.52;;
19207;SDS011;9737;59.466;18.036;2023-09-19T08:49:08;25.23;;;14.82;;
19207;SDS011;9737;59.466;18.036;2023-09-19T08:51:45;31.77;;;15.50;;
19207;SDS011;9737;59.466;18.036;2023-09-19T08:54:20;31.60;;;14.82;;
19207;SDS011;9737;59.466;18.036;2023-09-19T08:56:54;28.05;;;14.70;;
19207;SDS011;9737;59.466;18.036;2023-09-19T08:59:26;29.50;;;14.60;;
19207;SDS011;9737;59.466;18.036;2023-09-19T09:01:55;26.02;;;12.65;;
19207;SDS011;9737;59.466;18.036;2023-09-19T09:04:24;18.83;;;13.23;;
19207;SDS011;9737;59.466;18.036;2023-09-19T09:06:52;21.02;;;13.35;;
19207;SDS011;9737;59.466;18.036;2023-09-19T09:09:22;23.90;;;12.43;;
19207;SDS011;9737;59.466;18.036;2023-09-19T09:11:50;21.38;;;12.18;;
19207;SDS011;9737;59.466;18.036;2023-09-19T09:14:21;23.55;;;12.27;;
19207;SDS011;9737;59.466;18.036;2023-09-19T09:16:49;21.77;;;10.85;;
19207;SDS011;9737;59.466;18.036;2023-09-19T09:19:18;16.30;;;9.80;;
19207;SDS011;9737;59.466;18.036;2023-09-19T09:21:51;16.73;;;9.85;;
19207;SDS011;9737;59.466;18.036;2023-09-19T09:24:28;19.98;;;9.57;;
19207;SDS011;9737;59.466;18.036;2023-09-19T09:26:56;17.05;;;9.52;;
19207;SDS011;9737;59.466;18.036;2023-09-19T09:29:45;17.38;;;9.77;;
19207;SDS011;9737;59.466;18.036;2023-09-19T09:32:16;14.52;;;9.15;;
19207;SDS011;9737;59.466;18.036;2023-09-19T09:34:46;18.30;;;8.52;;
19207;SDS011;9737;59.466;18.036;2023-09-19T09:37:18;17.23;;;8.80;;
19207;SDS011;9737;59.466;18.036;2023-09-19T09:39:51;14.77;;;8.43;;
19207;SDS011;9737;59.466;18.036;2023-09-19T09:42:32;13.85;;;8.00;;
19207;SDS011;9737;59.466;18.036;2023-09-19T09:45:18;16.88;;;8.98;;
19207;SDS011;9737;59.466;18.036;2023-09-19T09:47:55;16.13;;;7.82;;
19207;SDS011;9737;59.466;18.036;2023-09-19T09:50:23;13.82;;;7.43;;
19207;SDS011;9737;59.466;18.036;2023-09-19T09:53:19;12.52;;;6.75;;
19207;SDS011;9737;59.466;18.036;2023-09-19T09:55:57;17.42;;;7.45;;
19207;SDS011;9737;59.466;18.036;2023-09-19T09:58:28;14.23;;;7.40;;
19207;SDS011;9737;59.466;18.036;2023-09-19T10:00:59;13.52;;;7.10;;
19207;SDS011;9737;59.466;18.036;2023-09-19T10:03:35;15.52;;;7.57;;
19207;SDS011;9737;59.466;18.036;2023-09-19T10:06:07;14.82;;;7.35;;
19207;SDS011;9737;59.466;18.036;2023-09-19T10:08:58;17.83;;;7.80;;
19207;SDS011;9737;59.466;18.036;2023-09-19T10:11:39;15.38;;;7.75;;
19207;SDS011;9737;59.466;18.036;2023-09-19T10:14:09;14.07;;;7.45;;
19207;SDS011;9737;59.466;18.036;2023-09-19T10:16:43;17.00;;;7.45;;
19207;SDS011;9737;59.466;18.036;2023-09-19T10:19:20;16.60;;;7.50;;
19207;SDS011;9737;59.466;18.036;2023-09-19T10:21:52;14.07;;;7.05;;
19207;SDS011;9737;59.466;18.036;2023-09-19T10:24:22;11.07;;;6.35;;
19207;SDS011;9737;59.466;18.036;2023-09-19T10:27:08;11.75;;;6.20;;
19207;SDS011;9737;59.466;18.036;2023-09-19T10:29:38;13.77;;;5.90;;
19207;SDS011;9737;59.466;18.036;2023-09-19T10:32:08;9.85;;;5.80;;
19207;SDS011;9737;59.466;18.036;2023-09-19T10:34:37;10.98;;;5.75;;
19207;SDS011;9737;59.466;18.036;2023-09-19T10:37:08;8.93;;;4.97;;
19207;SDS011;9737;59.466;18.036;2023-09-19T10:39:40;10.75;;;6.50;;
19207;SDS011;9737;59.466;18.036;2023-09-19T10:42:08;8.60;;;5.90;;
19207;SDS011;9737;59.466;18.036;2023-09-19T10:44:43;14.73;;;6.55;;
19207;SDS011;9737;59.466;18.036;2023-09-19T10:47:17;12.70;;;6.20;;
19207;SDS011;9737;59.466;18.036;2023-09-19T10:49:46;11.02;;;6.00;;
19207;SDS011;9737;59.466;18.036;2023-09-19T10:52:15;12.73;;;5.20;;
19207;SDS011;9737;59.466;18.036;2023-09-19T10:54:48;11.65;;;5.57;;
19207;SDS011;9737;59.466;18.036;2023-09-19T10:57:21;7.75;;;5.10;;
19207;SDS011;9737;59.466;18.036;2023-09-19T11:00:03;13.38;;;5.85;;
19207;SDS011;9737;59.466;18.036;2023-09-19T11:06:06;9.13;;;5.35;;
19207;SDS011;9737;59.466;18.036;2023-09-19T11:11:50;10.43;;;5.97;;
19207;SDS011;9737;59.466;18.036;2023-09-19T11:14:29;12.18;;;6.07;;
19207;SDS011;9737;59.466;18.036;2023-09-19T11:20:19;12.23;;;6.22;;
19207;SDS011;9737;59.466;18.036;2023-09-19T11:23:17;11.88;;;6.22;;
19207;SDS011;9737;59.466;18.036;2023-09-19T11:25:45;10.27;;;6.45;;
19207;SDS011;9737;59.466;18.036;2023-09-19T11:28:30;15.00;;;6.38;;
19207;SDS011;9737;59.466;18.036;2023-09-19T11:31:41;10.60;;;6.00;;
19207;SDS011;9737;59.466;18.036;2023-09-19T11:34:42;14.75;;;6.25;;
19207;SDS011;9737;59.466;18.036;2023-09-19T11:40:39;10.30;;;5.10;;
19207;SDS011;9737;59.466;18.036;2023-09-19T11:46:03;7.97;;;4.13;;
19207;SDS011;9737;59.466;18.036;2023-09-19T11:48:35;8.82;;;4.22;;
19207;SDS011;9737;59.466;18.036;2023-09-19T11:51:11;8.02;;;3.80;;
19207;SDS011;9737;59.466;18.036;2023-09-19T11:53:48;5.25;;;3.42;;
19207;SDS011;9737;59.466;18.036;2023-09-19T11:56:19;8.65;;;3.47;;
19207;SDS011;9737;59.466;18.036;2023-09-19T11:58:50;7.78;;;3.60;;
19207;SDS011;9737;59.466;18.036;2023-09-19T12:01:23;3.88;;;2.53;;
19207;SDS011;9737;59.466;18.036;2023-09-19T12:03:56;3.33;;;2.20;;
19207;SDS011;9737;59.466;18.036;2023-09-19T12:06:26;2.45;;;1.85;;
19207;SDS011;9737;59.466;18.036;2023-09-19T12:08:56;5.60;;;2.13;;
19207;SDS011;9737;59.466;18.036;2023-09-19T12:11:29;2.65;;;1.67;;
19207;SDS011;9737;59.466;18.036;2023-09-19T12:14:01;2.45;;;1.60;;
19207;SDS011;9737;59.466;18.036;2023-09-19T12:16:31;5.20;;;1.73;;
19207;SDS011;9737;59.466;18.036;2023-09-19T12:21:53;7.40;;;1.60;;
19207;SDS011;9737;59.466;18.036;2023-09-19T12:24:23;3.28;;;1.65;;
19207;SDS011;9737;59.466;18.036;2023-09-19T12:26:54;3.10;;;1.60;;
19207;SDS011;9737;59.466;18.036;2023-09-19T12:29:23;4.80;;;1.67;;
19207;SDS011;9737;59.466;18.036;2023-09-19T12:31:51;4.32;;;2.00;;
19207;SDS011;9737;59.466;18.036;2023-09-19T12:34:22;4.65;;;1.88;;
19207;SDS011;9737;59.466;18.036;2023-09-19T12:37:04;3.25;;;1.42;;
19207;SDS011;9737;59.466;18.036;2023-09-19T12:39:39;4.55;;;1.73;;
19207;SDS011;9737;59.466;18.036;2023-09-19T12:42:10;2.30;;;1.50;;
19207;SDS011;9737;59.466;18.036;2023-09-19T12:44:41;6.38;;;1.90;;
19207;SDS011;9737;59.466;18.036;2023-09-19T12:47:11;5.03;;;1.45;;
19207;SDS011;9737;59.466;18.036;2023-09-19T12:52:45;5.68;;;1.60;;
19207;SDS011;9737;59.466;18.036;2023-09-19T12:55:22;5.60;;;1.50;;
19207;SDS011;9737;59.466;18.036;2023-09-19T12:58:12;3.08;;;1.50;;
19207;SDS011;9737;59.466;18.036;2023-09-19T13:00:42;5.50;;;1.73;;
19207;SDS011;9737;59.466;18.036;2023-09-19T13:03:13;6.75;;;1.77;;
19207;SDS011;9737;59.466;18.036;2023-09-19T13:05:51;5.25;;;1.75;;
19207;SDS011;9737;59.466;18.036;2023-09-19T13:08:24;7.30;;;2.03;;
19207;SDS011;9737;59.466;18.036;2023-09-19T13:13:49;4.38;;;2.20;;
19207;SDS011;9737;59.466;18.036;2023-09-19T13:16:21;5.95;;;2.05;;
19207;SDS011;9737;59.466;18.036;2023-09-19T13:18:52;5.03;;;2.15;;
19207;SDS011;9737;59.466;18.036;2023-09-19T13:21:29;3.95;;;2.10;;
19207;SDS011;9737;59.466;18.036;2023-09-19T13:24:19;3.83;;;1.88;;
19207;SDS011;9737;59.466;18.036;2023-09-19T13:26:49;6.07;;;2.08;;
19207;SDS011;9737;59.466;18.036;2023-09-19T13:29:19;7.03;;;1.92;;
19207;SDS011;9737;59.466;18.036;2023-09-19T13:31:47;7.18;;;2.60;;
19207;SDS011;9737;59.466;18.036;2023-09-19T13:34:15;8.60;;;2.10;;
19207;SDS011;9737;59.466;18.036;2023-09-19T13:36:46;4.47;;;1.90;;
19207;SDS011;9737;59.466;18.036;2023-09-19T13:39:15;10.05;;;2.08;;
19207;SDS011;9737;59.466;18.036;2023-09-19T13:41:44;5.45;;;2.00;;
19207;SDS011;9737;59.466;18.036;2023-09-19T13:44:13;3.75;;;1.90;;
19207;SDS011;9737;59.466;18.036;2023-09-19T13:46:43;7.78;;;2.05;;
19207;SDS011;9737;59.466;18.036;2023-09-19T13:49:13;6.60;;;2.33;;
19207;SDS011;9737;59.466;18.036;2023-09-19T13:51:41;6.53;;;2.33;;
19207;SDS011;9737;59.466;18.036;2023-09-19T13:54:11;5.38;;;2.50;;
19207;SDS011;9737;59.466;18.036;2023-09-19T13:56:40;8.15;;;2.45;;
19207;SDS011;9737;59.466;18.036;2023-09-19T13:59:08;12.52;;;2.45;;
19207;SDS011;9737;59.466;18.036;2023-09-19T14:01:35;4.80;;;2.15;;
19207;SDS011;9737;59.466;18.036;2023-09-19T14:04:05;6.82;;;2.10;;
19207;SDS011;9737;59.466;18.036;2023-09-19T14:06:33;5.30;;;1.90;;
19207;SDS011;9737;59.466;18.036;2023-09-19T14:09:01;7.03;;;1.90;;
19207;SDS011;9737;59.466;18.036;2023-09-19T14:11:30;4.35;;;1.90;;
19207;SDS011;9737;59.466;18.036;2023-09-19T14:13:58;5.47;;;2.05;;
19207;SDS011;9737;59.466;18.036;2023-09-19T14:16:26;5.63;;;2.05;;
19207;SDS011;9737;59.466;18.036;2023-09-19T14:18:57;7.50;;;2.28;;
19207;SDS011;9737;59.466;18.036;2023-09-19T14:21:26;5.57;;;2.20;;
19207;SDS011;9737;59.466;18.036;2023-09-19T14:23:54;4.97;;;2.20;;
19207;SDS011;9737;59.466;18.036;2023-09-19T14:26:22;12.02;;;2.45;;
19207;SDS011;9737;59.466;18.036;2023-09-19T14:28:50;9.02;;;2.17;;
19207;SDS011;9737;59.466;18.036;2023-09-19T14:31:18;5.88;;;2.30;;
19207;SDS011;9737;59.466;18.036;2023-09-19T14:33:52;7.63;;;2.20;;
19207;SDS011;9737;59.466;18.036;2023-09-19T14:36:22;5.00;;;2.22;;
19207;SDS011;9737;59.466;18.036;2023-09-19T14:38:53;3.22;;;1.80;;
19207;SDS011;9737;59.466;18.036;2023-09-19T14:41:23;6.63;;;1.90;;
19207;SDS011;9737;59.466;18.036;2023-09-19T14:43:52;5.70;;;1.90;;
19207;SDS011;9737;59.466;18.036;2023-09-19T14:46:22;8.48;;;1.75;;
19207;SDS011;9737;59.466;18.036;2023-09-19T14:48:51;5.78;;;1.88;;
19207;SDS011;9737;59.466;18.036;2023-09-19T14:51:20;5.15;;;1.95;;
19207;SDS011;9737;59.466;18.036;2023-09-19T14:53:49;10.60;;;1.90;;
19207;SDS011;9737;59.466;18.036;2023-09-19T14:56:18;10.55;;;2.15;;
19207;SDS011;9737;59.466;18.036;2023-09-19T14:58:46;3.72;;;1.50;;
19207;SDS011;9737;59.466;18.036;2023-09-19T15:01:16;5.53;;;1.52;;
19207;SDS011;9737;59.466;18.036;2023-09-19T15:03:44;4.25;;;1.90;;
19207;SDS011;9737;59.466;18.036;2023-09-19T15:06:13;3.22;;;1.60;;
19207;SDS011;9737;59.466;18.036;2023-09-19T15:08:43;5.93;;;1.80;;
19207;SDS011;9737;59.466;18.036;2023-09-19T15:11:14;6.65;;;1.90;;
19207;SDS011;9737;59.466;18.036;2023-09-19T15:13:45;11.95;;;2.50;;
19207;SDS011;9737;59.466;18.036;2023-09-19T15:16:14;2.88;;;1.73;;
19207;SDS011;9737;59.466;18.036;2023-09-19T15:18:42;7.15;;;2.10;;
19207;SDS011;9737;59.466;18.036;2023-09-19T15:21:14;4.68;;;2.00;;
19207;SDS011;9737;59.466;18.036;2023-09-19T15:23:43;5.38;;;1.80;;
19207;SDS011;9737;59.466;18.036;2023-09-19T15:26:12;3.95;;;1.45;;
19207;SDS011;9737;59.466;18.036;2023-09-19T15:28:45;5.25;;;1.65;;
19207;SDS011;9737;59.466;18.036;2023-09-19T15:31:14;1.52;;;1.10;;
19207;SDS011;9737;59.466;18.036;2023-09-19T15:33:42;1.58;;;1.25;;
19207;SDS011;9737;59.466;18.036;2023-09-19T15:36:10;4.30;;;1.40;;
19207;SDS011;9737;59.466;18.036;2023-09-19T15:38:56;3.13;;;1.30;;
19207;SDS011;9737;59.466;18.036;2023-09-19T15:41:27;4.35;;;1.27;;
19207;SDS011;9737;59.466;18.036;2023-09-19T15:43:58;3.53;;;1.60;;
19207;SDS011;9737;59.466;18.036;2023-09-19T15:46:27;3.17;;;1.10;;
19207;SDS011;9737;59.466;18.036;2023-09-19T15:48:57;2.75;;;1.10;;
19207;SDS011;9737;59.466;18.036;2023-09-19T15:51:26;2.40;;;1.30;;
19207;SDS011;9737;59.466;18.036;2023-09-19T15:53:55;1.42;;;1.30;;
19207;SDS011;9737;59.466;18.036;2023-09-19T15:56:24;2.05;;;1.10;;
19207;SDS011;9737;59.466;18.036;2023-09-19T15:58:53;2.58;;;1.40;;
19207;SDS011;9737;59.466;18.036;2023-09-19T16:01:25;4.25;;;1.20;;
19207;SDS011;9737;59.466;18.036;2023-09-19T16:03:53;1.50;;;1.40;;
19207;SDS011;9737;59.466;18.036;2023-09-19T16:06:22;2.05;;;1.08;;
19207;SDS011;9737;59.466;18.036;2023-09-19T16:08:53;6.00;;;1.40;;
19207;SDS011;9737;59.466;18.036;2023-09-19T16:11:22;2.60;;;1.40;;
19207;SDS011;9737;59.466;18.036;2023-09-19T16:13:50;1.38;;;1.08;;
19207;SDS011;9737;59.466;18.036;2023-09-19T16:16:20;3.63;;;1.30;;
19207;SDS011;9737;59.466;18.036;2023-09-19T16:18:52;5.05;;;1.45;;
19207;SDS011;9737;59.466;18.036;2023-09-19T16:21:22;6.00;;;1.30;;
19207;SDS011;9737;59.466;18.036;2023-09-19T16:23:53;2.38;;;1.25;;
19207;SDS011;9737;59.466;18.036;2023-09-19T16:26:23;2.53;;;1.48;;
19207;SDS011;9737;59.466;18.036;2023-09-19T16:28:52;2.47;;;1.27;;
19207;SDS011;9737;59.466;18.036;2023-09-19T16:31:20;2.75;;;1.60;;
19207;SDS011;9737;59.466;18.036;2023-09-19T16:33:49;8.60;;;1.10;;
19207;SDS011;9737;59.466;18.036;2023-09-19T16:36:20;4.32;;;1.40;;
19207;SDS011;9737;59.466;18.036;2023-09-19T16:38:49;3.75;;;1.40;;
19207;SDS011;9737;59.466;18.036;2023-09-19T16:41:17;3.78;;;1.30;;